Calumet, MI (49913)

4:31 PM EDT on March 29, 2015 (GMT -0400)
Hubbell (Near Hubbell Haven) | | Change Station
CLOSE
Current Station
Personal Weather Station
Location: Hubbell, MI
Elevation: 730 ft
Nearby Weather Stations

Elev 730 ft 47.18 °N, 88.43 °W | Updated 0 second ago

Snow
Snow
35.2 °F
Feels Like 33 °F
N
3.2
Wind Variable Wind from WSW
Gusts 11.1 mph

Today
High -- | Low -- °F
--% Chance of Precip.
Yesterday
High -- | Low -- °F
Precip. -- in
7:38 AM 8:18 PM
Waxing Gibbous, 74% visible
Pressure 29.39 in
Visibility 0.8 miles
Clouds Mostly Cloudy 600 ft
Overcast 1000 ft
Windchill 33 °F
Dew Point 31 °F
Humidity 84%
Rainfall 0.14 in
Snow Depth Not available.
UV 1 out of 12
Pollen .30 out of 12
Air Quality Not available.
Flu Activity Not available.
SPECI KCMX 292024Z AUTO 25013KT 3/4SM -SN BR BKN006 OVC010 01/M01 A2939 RMK AO2 CIG 004V009 P0002 T00111006

More Conditions Fewer Conditions

Pressure 29.39 in
Visibility 0.8 miles
Clouds Mostly Cloudy 600 ft
Overcast 1000 ft
Windchill 33 °F
Dew Point 31 °F
Humidity 84%
Rainfall 0.14 in
Snow Depth Not available.
UV 1 out of 12
Pollen .30 out of 12
Air Quality Not available.
Flu Activity Not available.
SPECI KCMX 292024Z AUTO 25013KT 3/4SM -SN BR BKN006 OVC010 01/M01 A2939 RMK AO2 CIG 004V009 P0002 T00111006

More Conditions Fewer Conditions

10-Day Weather Forecast

Almanac

Astronomy

Mar. 29, 2015 Rise Set
Actual Time
Civil Twilight
Nautical Twilight
Astronomical Twilight
Moon
Length of Visible Light
Length of Day
Tomorrow will be .
, % of the Moon is Illuminated

Today's Extremes

State Highs State Lows

Community

WunderPhotos

Upload Photos

1,809,346 photos uploaded!

WunderBlogs® & News

Nearby

Air Quality

  Air Quality AQ Index Pollutant
Not available.

Snow Depth

Station Depth Elevation

Earthquake Activity

City Distance Mag. Time & Date
Minimum magnitude displayed is 2.5.

Coastal Water Temperatures

Place Temperature

Stations

Nearby Weather Stations

Station Location Temp. Windchill Dew Point Humidity Wind Precip. Elev Updated Type